Glens Falls, NY (12801)

6:13 AM EDT on October 25, 2014 (GMT -0400)
Glens Falls, NY | Change Station
CLOSE
Current Station
Personal Weather Station
Location: Glens Falls, NY
Elevation: 331 ft
Nearby Weather Stations

Elev 331 ft 43.31 °N, 73.64 °W | Updated 3 minutes ago

Fog
Fog
40.1 °F
Feels Like 40 °F
N
2.7
Wind Variable Wind from WSW

Today
High -- | Low -- °F
--% Chance of Precip.
Yesterday
High -- | Low -- °F
Precip. -- in
7:20 AM 5:55 PM
New Moon, 2% visible
Pressure 29.83 in
Visibility 0.2 miles
Clouds
Windchill 40 °F
Dew Point 40 °F
Humidity 99%
Rainfall 0.00 in
Snow Depth Not available.
UV Not available.
Pollen .10 out of 12
Air Quality Not available.
Flu Activity Sporadic
METAR KGFL 250953Z AUTO 16003KT 1/4SM FG VV002 05/04 A2981 RMK AO2 SLP101 T00500044

More Conditions Fewer Conditions

Pressure 29.83 in
Visibility 0.2 miles
Clouds
Windchill 40 °F
Dew Point 40 °F
Humidity 99%
Rainfall 0.00 in
Snow Depth Not available.
UV Not available.
Pollen .10 out of 12
Air Quality Not available.
Flu Activity Sporadic
METAR KGFL 250953Z AUTO 16003KT 1/4SM FG VV002 05/04 A2981 RMK AO2 SLP101 T00500044

More Conditions Fewer Conditions

10-Day Weather Forecast

Almanac

Astronomy

Oct. 25, 2014 Rise Set
Actual Time 7:20 AM EDT 5:55 PM EDT
Civil Twilight 6:51 AM EDT 6:25 PM EDT
Nautical Twilight 6:18 AM EDT 6:58 PM EDT
Astronomical Twilight 5:45 AM EDT 7:31 PM EDT
Moon 8:59 AM EDT 7:14 PM EDT
Length of Visible Light 11h 33m
Length of Day
10h 35m
Tomorrow will be 2m 44s shorter.
New Moon, 2% of the Moon is Illuminated
Today
New Moon
Oct 30
First Quarter
Nov 6
Full
Nov 14
Last Quarter
Nov 22
New

Today's Extremes

State Highs State Lows

Community

WunderPhotos

Upload Photos

1,764,796 photos uploaded!

Nearby

Air Quality

  Air Quality AQ Index Pollutant
Saturday Good
PM2.5
Sunday Good
PM2.5
Monday Good
PM2.5

Snow Depth

Station Depth Elevation
No new snow has been reported.

Earthquake Activity

City Distance Mag. Time & Date
No recent earthquake activity has been reported nearby.
Minimum magnitude displayed is 2.5.

Coastal Water Temperatures

Place Temperature
No Stations Reporting

Nearby Weather Stations